Flight Track Log - Related Links

Times and Time Zones

All times are in EDT time to prevent confusion due to time zone crossing. See the AAL371 flight status page for this flight to view local times or setup timezone preferences in your user account.

Time Position Orientation Groundspeed Altitude Reporting Facility
EDT Latitude Longitude Course Direction KTS MPH feet Rate Location/Type
Thu 02:31:42 AM 39.3167 -94.7000 41° Northeast 183 211 1,800  Level Kansas City TRACON
Thu 02:32:17 AM 39.3367 -94.6797 38° Northeast 195 224 2,700 1,935 Climbing Kansas City Center
Thu 02:33:15 AM 39.3822 -94.6258 42° Northeast 230 265 4,800 2,441 Climbing Kansas City Center
Thu 02:34:15 AM 39.4433 -94.5458 45° Northeast 281 323 7,500 2,777 Climbing Kansas City Center
Thu 02:35:16 AM 39.5003 -94.4725 45° Northeast 299 344 10,400 2,066 Climbing Kansas City Center
Thu 02:36:17 AM 39.5389 -94.3656 65° Northeast 349 402 11,700 1,700 Climbing Kansas City Center
Thu 02:37:00 AM 39.9870 -93.8315 41° Northeast  Level FlightAware Approximate
Thu 02:37:16 AM 39.5797 -94.2428 67° East 385 443 13,800  Level Kansas City Center
Thu 02:38:16 AM 39.6306 -94.0964 66° East 399 459 16,400 2,262 Climbing Kansas City Center
Thu 02:39:18 AM 39.6764 -93.9683 65° Northeast 406 467 18,400 1,686 Climbing Kansas City Center
Thu 02:40:17 AM 39.7225 -93.8344 66° East 424 488 19,800 1,388 Climbing Kansas City Center
Thu 02:41:19 AM 39.7692 -93.6936 67° East 450 518 21,200 1,686 Climbing Kansas City Center
Thu 02:42:18 AM 39.8208 -93.5436 66° East 458 527 23,200 1,815 Climbing Kansas City Center
Thu 02:43:18 AM 39.8711 -93.3936 66° East 455 524 24,800 1,537 Climbing Kansas City Center
Thu 02:44:19 AM 39.9331 -93.2053 67° East 476 548 26,300 1,350 Climbing Kansas City Center
Thu 02:45:18 AM 39.9869 -93.0456 66° East 483 556 27,500 1,339 Climbing Kansas City Center
Thu 02:46:20 AM 40.0386 -92.8847 67° East 487 560 29,000 1,403 Climbing Kansas City Center
Thu 02:47:22 AM 40.0881 -92.7339 67° East 485 558 30,400 1,300 Climbing Kansas City Center
Thu 02:48:20 AM 40.1458 -92.5536 67° East 482 555 31,600 1,091 Climbing Kansas City Center
Thu 02:49:23 AM 40.2031 -92.4039 63° Northeast 479 551 32,600 694 Climbing Kansas City Center
Thu 02:50:21 AM 40.2542 -92.2642 64° Northeast 477 549 33,000 203 Climbing Kansas City Center
Thu 02:51:21 AM 40.3092 -92.1094 65° Northeast 476 548 33,000  Level Kansas City Center
Thu 02:52:23 AM 40.3639 -91.9547 65° Northeast 474 545 33,000  Level Kansas City Center
Thu 02:53:21 AM 40.4200 -91.7994 65° Northeast 476 548 33,000  Level Kansas City Center
Thu 02:54:21 AM 40.4842 -91.6108 66° East 476 548 33,000  Level Kansas City Center
Thu 02:55:21 AM 40.5378 -91.4519 66° East 479 551 33,000  Level Kansas City Center
Thu 02:56:23 AM 40.5919 -91.2908 66° East 483 556 33,000  Level Kansas City Center
Thu 02:57:25 AM 40.6517 -91.1206 65° Northeast 483 556 33,000  Level Chicago Center
Thu 02:58:26 AM 40.7072 -90.9606 65° Northeast 480 552 33,000  Level Chicago Center
Thu 02:59:26 AM 40.7608 -90.8003 66° East 478 550 33,000  Level Chicago Center
Thu 03:00:26 AM 40.8392 -90.6633 53° Northeast 462 532 33,000  Level Chicago Center
Thu 03:01:26 AM 40.9239 -90.5331 49° Northeast 464 534 33,000  Level Chicago Center
Thu 03:02:27 AM 41.0089 -90.4017 49° Northeast 466 536 33,000 -99 Level Chicago Center
Thu 03:03:27 AM 41.0947 -90.2769 48° Northeast 457 526 32,800 -1,250 Descending Chicago Center
Thu 03:04:27 AM 41.1817 -90.1572 46° Northeast 448 516 30,500 -2,650 Descending Chicago Center
Thu 03:05:27 AM 41.2819 -90.0519 38° Northeast 453 521 27,500 -2,350 Descending Chicago Center
Thu 03:06:27 AM 41.3697 -90.0056 22° Northeast 422 486 25,800 -2,132 Descending Chicago Center
Thu 03:07:28 AM 41.4992 -89.9436 20° North 411 473 23,200 -2,182 Descending Chicago Center
Thu 03:08:28 AM 41.5697 -89.8711 38° Northeast 400 460 21,400 -1,900 Descending Chicago Center
Thu 03:09:28 AM 41.6456 -89.7625 47° Northeast 399 459 19,400 -2,150 Descending Chicago Center
Thu 03:10:28 AM 41.6997 -89.6400 59° Northeast 387 445 17,100 -2,150 Descending Chicago Center
Thu 03:11:28 AM 41.7436 -89.4939 68° East 376 433 15,100 -2,033 Descending Chicago Center
Thu 03:12:29 AM 41.7828 -89.3711 67° East 363 418 13,000 -1,636 Descending Chicago Center
Thu 03:13:29 AM 41.8258 -89.2558 63° Northeast 352 405 11,800 -950 Descending Chicago Center
Thu 03:14:29 AM 41.8647 -89.1403 66° East 342 394 11,100 -350 Descending Chicago Center
Thu 03:15:29 AM 41.9044 -89.0219 66° East 347 399 11,100  Level Chicago Center
Thu 03:16:29 AM 41.9333 -88.8978 73° East 351 404 11,100 -248 Level Chicago Center
Thu 03:17:30 AM 41.9492 -88.7686 81° East 354 407 10,600 -545 Descending Chicago Center
Thu 03:18:30 AM 41.9644 -88.6436 81° East 342 394 10,000 -950 Descending Chicago Center
Thu 03:19:30 AM 41.9672 -88.5297 88° East 312 359 8,700 -1,350 Descending Chicago Center
Thu 03:20:30 AM 41.9667 -88.4183 90° East 301 346 7,300 -1,350 Descending Chicago Center
Thu 03:21:30 AM 41.9681 -88.3106 89° East 292 336 6,000 -1,240 Descending Chicago Center
Thu 03:22:31 AM 41.9672 -88.2111 91° East 275 316 4,800 -1,322 Descending Chicago Center
Thu 03:23:28 AM 41.9667 -88.1167 90° East 224 258 3,400 -1,220 Descending Chicago TRACON
Thu 03:24:34 AM 41.9667 -88.0500 90° East 156 180 2,300 -905 Descending Chicago TRACON
Thu 03:25:34 AM 41.9667 -87.9833 90° East 148 170 1,500 -744 Descending Chicago TRACON
Thu 03:26:35 AM 41.9667 -87.9333 90° East 144 166 800 -689 Descending Chicago TRACON

Login

Don't have an account? Register now (free) for customized features, flight alerts, and more!